createdAt,value
2023-02-05T00:03:39.248Z,1.25
2023-02-05T00:07:21.956Z,1.16
2023-02-05T00:11:09.385Z,1.04
2023-02-05T00:14:52.405Z,1.04
2023-02-05T00:18:37.329Z,1.03
2023-02-05T00:22:19.963Z,0.99
2023-02-05T00:26:02.765Z,0.97
2023-02-05T00:29:45.489Z,0.97
2023-02-05T00:33:28.150Z,1.02
2023-02-05T00:37:12.270Z,1.00
2023-02-05T00:40:55.053Z,1.00
2023-02-05T00:44:37.688Z,1.02
2023-02-05T00:48:20.460Z,1.02
2023-02-05T00:52:05.116Z,1.02
2023-02-05T00:55:49.181Z,1.02
2023-02-05T00:59:31.855Z,0.99
2023-02-05T01:03:14.920Z,1.00
2023-02-05T01:06:57.537Z,0.97
2023-02-05T01:10:44.972Z,0.95
2023-02-05T01:14:29.000Z,0.92
2023-02-05T01:18:12.152Z,0.93
2023-02-05T01:21:54.855Z,0.90
2023-02-05T01:25:37.664Z,0.88
2023-02-05T01:29:20.569Z,0.90
2023-02-05T01:33:05.056Z,0.84
2023-02-05T01:36:47.740Z,0.84
2023-02-05T01:40:33.628Z,0.88
2023-02-05T01:44:18.581Z,0.91
2023-02-05T01:48:02.996Z,0.85
2023-02-05T01:51:48.788Z,0.83
2023-02-05T01:55:32.305Z,0.81
2023-02-05T01:59:18.443Z,0.79
2023-02-05T02:03:01.576Z,0.74
2023-02-05T02:06:44.270Z,0.72
2023-02-05T02:10:28.501Z,0.73
2023-02-05T02:14:12.370Z,0.69
2023-02-05T02:18:20.405Z,0.65
2023-02-05T02:22:27.184Z,0.58
2023-02-05T02:26:22.263Z,0.55
2023-02-05T02:30:10.479Z,0.52
2023-02-05T02:33:57.824Z,0.51
2023-02-05T02:37:45.766Z,0.52
2023-02-05T02:41:31.037Z,0.56
2023-02-05T02:45:15.716Z,0.59
2023-02-05T02:49:04.189Z,0.58
2023-02-05T02:52:47.932Z,0.61
2023-02-05T02:56:32.513Z,0.62
2023-02-05T03:00:20.515Z,0.62
2023-02-05T03:04:09.874Z,0.58
2023-02-05T03:07:54.139Z,0.57
2023-02-05T03:11:36.818Z,0.57
2023-02-05T03:15:20.869Z,0.53
2023-02-05T03:19:05.474Z,0.49
2023-02-05T03:22:48.166Z,0.45
2023-02-05T03:26:32.662Z,0.42
2023-02-05T03:30:15.888Z,0.39
2023-02-05T03:34:08.422Z,0.35
2023-02-05T03:38:01.350Z,0.30
2023-02-05T03:41:58.240Z,0.24
2023-02-05T03:45:49.296Z,0.19
2023-02-05T03:49:42.009Z,0.18
2023-02-05T03:53:27.653Z,0.16
2023-02-05T03:57:14.870Z,0.12
2023-02-05T04:00:57.970Z,0.11
2023-02-05T04:04:42.280Z,0.08
2023-02-05T04:08:24.965Z,0.05
2023-02-05T04:12:08.021Z,0.02
2023-02-05T04:15:50.708Z,-0.01
2023-02-05T04:19:33.552Z,-0.08
2023-02-05T04:23:17.496Z,-0.08
2023-02-05T04:27:00.164Z,-0.07
2023-02-05T04:30:43.019Z,-0.08
2023-02-05T04:34:25.675Z,-0.13
2023-02-05T04:38:08.316Z,-0.15
2023-02-05T04:41:53.425Z,-0.19
2023-02-05T04:45:37.105Z,-0.21
2023-02-05T04:49:19.775Z,-0.26
2023-02-05T04:53:03.384Z,-0.29
2023-02-05T04:56:46.826Z,-0.33
2023-02-05T05:00:30.984Z,-0.36
2023-02-05T05:04:13.617Z,-0.36
2023-02-05T05:07:56.245Z,-0.37
2023-02-05T05:11:38.934Z,-0.42
2023-02-05T05:15:21.576Z,-0.45
2023-02-05T05:19:05.608Z,-0.49
2023-02-05T05:22:48.223Z,-0.53
2023-02-05T05:26:31.181Z,-0.52
2023-02-05T05:30:14.644Z,-0.53
2023-02-05T05:33:57.297Z,-0.52
2023-02-05T05:37:41.386Z,-0.53
2023-02-05T05:41:42.835Z,-0.54
2023-02-05T05:45:25.815Z,-0.53
2023-02-05T05:49:08.456Z,-0.52
2023-02-05T05:52:52.582Z,-0.56
2023-02-05T05:56:35.686Z,-0.57
2023-02-05T06:00:18.846Z,-0.60
2023-02-05T06:04:04.025Z,-0.61
2023-02-05T06:07:46.960Z,-0.58
2023-02-05T06:11:30.985Z,-0.60
2023-02-05T06:15:13.637Z,-0.60
2023-02-05T06:18:57.052Z,-0.60
2023-02-05T06:22:39.720Z,-0.61
2023-02-05T06:26:22.369Z,-0.61
2023-02-05T06:30:07.245Z,-0.59
2023-02-05T06:33:49.954Z,-0.59
2023-02-05T06:37:46.872Z,-0.60
2023-02-05T06:41:32.855Z,-0.62
2023-02-05T06:45:17.008Z,-0.65
2023-02-05T06:48:59.662Z,-0.68
2023-02-05T06:52:42.316Z,-0.71
2023-02-05T06:56:25.024Z,-0.69
2023-02-05T07:00:09.013Z,-0.70
2023-02-05T07:03:56.127Z,-0.71
2023-02-05T07:07:39.679Z,-0.69
2023-02-05T07:11:23.034Z,-0.71
2023-02-05T07:15:06.192Z,-0.74
2023-02-05T07:18:48.908Z,-0.71
2023-02-05T07:22:33.020Z,-0.67
2023-02-05T07:26:17.251Z,-0.60
2023-02-05T07:30:00.289Z,-0.49
2023-02-05T07:33:43.170Z,-0.43
2023-02-05T07:37:25.864Z,-0.37
2023-02-05T07:41:11.220Z,-0.35
2023-02-05T07:44:53.989Z,-0.32
2023-02-05T07:48:37.158Z,-0.28
2023-02-05T07:52:19.845Z,-0.23
2023-02-05T07:56:06.234Z,-0.26
2023-02-05T07:59:50.271Z,-0.21
2023-02-05T08:03:33.056Z,-0.20
2023-02-05T08:07:15.760Z,-0.19
2023-02-05T08:10:59.068Z,-0.14
2023-02-05T08:14:41.742Z,0.03
2023-02-05T08:18:26.463Z,0.03
2023-02-05T08:22:09.142Z,0.05
2023-02-05T08:25:54.433Z,0.12
2023-02-05T08:29:37.354Z,0.15
2023-02-05T08:33:20.172Z,0.18
2023-02-05T08:37:04.319Z,0.26
2023-02-05T08:40:47.008Z,0.36
2023-02-05T08:44:30.193Z,0.48
2023-02-05T08:48:12.859Z,0.50
2023-02-05T08:51:55.505Z,0.56
2023-02-05T08:55:39.974Z,0.74
2023-02-05T08:59:22.701Z,0.60
2023-02-05T09:03:06.636Z,0.69
2023-02-05T09:06:49.642Z,0.78
2023-02-05T09:10:32.477Z,0.91
2023-02-05T09:14:16.788Z,1.04
2023-02-05T09:17:59.503Z,1.13
2023-02-05T09:21:42.716Z,1.22
2023-02-05T09:25:25.515Z,1.34
2023-02-05T09:29:08.201Z,1.44
2023-02-05T09:32:52.257Z,1.55
2023-02-05T09:36:34.946Z,1.67
2023-02-05T09:40:21.944Z,1.73
2023-02-05T09:44:11.492Z,1.79
2023-02-05T09:47:59.956Z,1.86
2023-02-05T09:51:45.044Z,2.09
2023-02-05T09:55:30.333Z,2.25
2023-02-05T09:59:15.533Z,2.43
2023-02-05T10:03:06.983Z,2.56
2023-02-05T10:07:16.224Z,2.77
2023-02-05T10:10:59.137Z,2.83
2023-02-05T10:14:51.023Z,2.93
2023-02-05T10:18:44.115Z,2.99
2023-02-05T10:22:30.117Z,2.98
2023-02-05T10:26:13.657Z,3.05
2023-02-05T10:30:03.258Z,3.16
2023-02-05T10:33:50.338Z,3.21
2023-02-05T10:37:39.548Z,3.33
2023-02-05T10:41:25.980Z,3.53
2023-02-05T10:45:18.136Z,3.80
2023-02-05T10:49:08.077Z,3.84
2023-02-05T10:52:50.737Z,3.88
2023-02-05T10:56:33.461Z,3.91
2023-02-05T11:00:18.996Z,4.06
2023-02-05T11:04:05.462Z,4.02
2023-02-05T11:07:50.239Z,4.04
2023-02-05T11:11:33.202Z,4.07
2023-02-05T11:15:21.775Z,4.07
2023-02-05T11:19:06.153Z,4.00
2023-02-05T11:22:49.710Z,4.09
2023-02-05T11:26:32.434Z,4.22
2023-02-05T11:30:37.674Z,4.21
2023-02-05T11:34:24.777Z,4.22
2023-02-05T11:38:09.477Z,4.22
2023-02-05T11:41:52.709Z,4.35
2023-02-05T11:45:37.006Z,4.26
2023-02-05T11:49:24.297Z,4.16
2023-02-05T11:53:14.564Z,4.02
2023-02-05T11:57:06.223Z,3.93
2023-02-05T12:00:54.398Z,3.75
2023-02-05T12:04:45.744Z,3.76
2023-02-05T12:08:33.811Z,3.87
2023-02-05T12:12:21.508Z,3.90
2023-02-05T12:16:09.257Z,3.98
2023-02-05T12:19:57.876Z,3.90
2023-02-05T12:24:05.599Z,3.81
2023-02-05T12:27:58.649Z,3.74
2023-02-05T12:31:55.281Z,3.61
2023-02-05T12:35:53.298Z,3.55
2023-02-05T12:39:40.262Z,3.59
2023-02-05T12:43:31.825Z,3.70
2023-02-05T12:47:24.066Z,3.75
2023-02-05T12:51:16.903Z,3.78
2023-02-05T12:55:13.556Z,3.83
2023-02-05T12:59:00.555Z,3.95
2023-02-05T13:02:49.278Z,3.87
2023-02-05T13:06:34.766Z,3.73
2023-02-05T13:10:20.785Z,3.61
2023-02-05T13:14:08.081Z,3.46
2023-02-05T13:17:56.929Z,3.39
2023-02-05T13:21:58.644Z,3.41
2023-02-05T13:26:00.893Z,3.46
2023-02-05T13:29:51.124Z,3.54
2023-02-05T13:33:33.847Z,3.44
2023-02-05T13:37:30.628Z,3.37
2023-02-05T13:41:35.081Z,3.38
2023-02-05T13:45:47.699Z,3.35
2023-02-05T13:50:04.645Z,3.21
2023-02-05T13:54:01.192Z,3.25
2023-02-05T13:58:13.438Z,3.25
2023-02-05T14:02:00.285Z,3.12
2023-02-05T14:05:43.990Z,3.14
2023-02-05T14:09:34.406Z,3.21
2023-02-05T14:13:23.092Z,3.28
2023-02-05T14:17:38.973Z,3.35
2023-02-05T14:22:04.498Z,3.40
2023-02-05T14:26:11.695Z,3.35
2023-02-05T14:29:54.704Z,3.36
2023-02-05T14:33:41.067Z,3.28
2023-02-05T14:37:34.815Z,3.30
2023-02-05T14:41:20.603Z,3.33
2023-02-05T14:45:03.363Z,3.37
2023-02-05T14:48:48.359Z,3.39
2023-02-05T14:52:34.468Z,3.36
2023-02-05T14:56:31.457Z,3.41
2023-02-05T15:00:27.671Z,3.36
2023-02-05T15:04:24.433Z,3.16
2023-02-05T15:08:12.021Z,3.20
2023-02-05T15:12:09.901Z,3.29
2023-02-05T15:16:20.693Z,3.31
2023-02-05T15:20:06.875Z,3.29
2023-02-05T15:23:53.024Z,3.26
2023-02-05T15:27:41.904Z,3.25
2023-02-05T15:31:33.717Z,3.15
2023-02-05T15:35:21.086Z,3.13
2023-02-05T15:39:10.636Z,3.11
2023-02-05T15:42:58.862Z,3.14
2023-02-05T15:46:41.720Z,3.10
2023-02-05T15:50:24.408Z,3.14
2023-02-05T15:54:07.736Z,3.14
2023-02-05T15:57:50.662Z,3.14
2023-02-05T16:01:37.259Z,3.15
2023-02-05T16:05:23.147Z,3.15
2023-02-05T16:09:16.916Z,3.16
2023-02-05T16:13:00.917Z,3.17
2023-02-05T16:16:56.760Z,3.16
2023-02-05T16:20:42.189Z,3.15
2023-02-05T16:24:31.296Z,3.18
2023-02-05T16:28:17.014Z,3.17
2023-02-05T16:32:05.725Z,3.18
2023-02-05T16:35:49.461Z,3.17
2023-02-05T16:39:38.760Z,3.15
2023-02-05T16:43:30.289Z,3.17
2023-02-05T16:47:16.545Z,3.14
2023-02-05T16:50:59.843Z,3.13
2023-02-05T16:54:42.548Z,3.08
2023-02-05T16:58:28.805Z,3.07
2023-02-05T17:02:24.294Z,3.05
2023-02-05T17:06:13.593Z,3.04
2023-02-05T17:10:07.026Z,3.02
2023-02-05T17:13:49.800Z,3.02
2023-02-05T17:17:33.811Z,3.02
2023-02-05T17:21:28.982Z,3.00
2023-02-05T17:25:11.727Z,3.00
2023-02-05T17:28:56.437Z,3.00
2023-02-05T17:32:40.460Z,3.01
2023-02-05T17:36:23.358Z,2.99
2023-02-05T17:40:07.015Z,2.97
2023-02-05T17:43:49.925Z,2.95
2023-02-05T17:47:32.547Z,2.94
2023-02-05T17:51:22.562Z,2.91
2023-02-05T17:55:05.806Z,2.90
2023-02-05T17:58:49.815Z,2.89
2023-02-05T18:02:32.526Z,2.88
2023-02-05T18:06:16.828Z,2.86
2023-02-05T18:10:01.008Z,2.85
2023-02-05T18:13:43.679Z,2.87
2023-02-05T18:17:26.394Z,2.81
2023-02-05T18:21:09.037Z,2.80
2023-02-05T18:24:51.726Z,2.77
2023-02-05T18:28:36.256Z,2.70
2023-02-05T18:32:23.605Z,2.68
2023-02-05T18:36:11.423Z,2.63
2023-02-05T18:39:54.059Z,2.64
2023-02-05T18:43:39.050Z,2.64
2023-02-05T18:47:21.695Z,2.65
2023-02-05T18:51:08.291Z,2.64
2023-02-05T18:54:50.979Z,2.63
2023-02-05T18:58:34.055Z,2.59
2023-02-05T19:02:18.090Z,2.59
2023-02-05T19:06:04.523Z,2.58
2023-02-05T19:09:47.278Z,2.55
2023-02-05T19:13:29.986Z,2.54
2023-02-05T19:17:12.651Z,2.53
2023-02-05T19:20:56.755Z,2.50
2023-02-05T19:24:40.423Z,2.52
2023-02-05T19:28:23.157Z,2.57
2023-02-05T19:32:06.716Z,2.50
2023-02-05T19:35:51.592Z,2.53
2023-02-05T19:39:35.622Z,2.66
2023-02-05T19:43:19.722Z,2.73
2023-02-05T19:47:02.481Z,2.82
2023-02-05T19:50:45.148Z,2.99
2023-02-05T19:54:29.442Z,2.94
2023-02-05T19:58:13.518Z,2.87
2023-02-05T20:01:56.226Z,2.79
2023-02-05T20:05:38.992Z,2.76
2023-02-05T20:09:21.652Z,2.74
2023-02-05T20:13:04.306Z,2.68
2023-02-05T20:16:48.410Z,2.65
2023-02-05T20:20:44.920Z,2.65
2023-02-05T20:24:27.813Z,2.64
2023-02-05T20:28:10.482Z,2.64
2023-02-05T20:31:54.969Z,2.65
2023-02-05T20:35:37.751Z,2.65
2023-02-05T20:39:21.306Z,2.66
2023-02-05T20:43:07.040Z,2.66
2023-02-05T20:46:49.729Z,2.63
2023-02-05T20:50:34.930Z,2.59
2023-02-05T20:54:17.877Z,2.58
2023-02-05T20:58:00.626Z,2.59
2023-02-05T21:01:43.538Z,2.58
2023-02-05T21:05:26.227Z,2.57
2023-02-05T21:09:10.591Z,2.54
2023-02-05T21:12:53.415Z,2.55
2023-02-05T21:16:36.900Z,2.60
2023-02-05T21:20:19.639Z,2.61
2023-02-05T21:24:03.452Z,2.50
2023-02-05T21:27:47.549Z,2.49
2023-02-05T21:31:33.868Z,2.49
2023-02-05T21:35:17.090Z,2.51
2023-02-05T21:39:00.137Z,2.51
2023-02-05T21:42:42.787Z,2.48
2023-02-05T21:46:29.114Z,2.44
2023-02-05T21:50:11.876Z,2.42
2023-02-05T21:53:57.216Z,2.38
2023-02-05T21:57:39.950Z,2.36
2023-02-05T22:01:24.888Z,2.34
2023-02-05T22:05:09.528Z,2.33
2023-02-05T22:08:52.536Z,2.34
2023-02-05T22:12:35.270Z,2.39
2023-02-05T22:16:20.503Z,2.59
2023-02-05T22:20:06.103Z,2.68
2023-02-05T22:23:53.313Z,2.84
2023-02-05T22:27:36.289Z,2.98
2023-02-05T22:31:20.396Z,3.01
2023-02-05T22:35:04.595Z,3.08
2023-02-05T22:38:47.575Z,3.14
2023-02-05T22:42:31.606Z,3.14
2023-02-05T22:46:16.528Z,3.19
2023-02-05T22:49:59.234Z,3.24
2023-02-05T22:53:42.041Z,3.10
2023-02-05T22:57:24.729Z,2.95
2023-02-05T23:01:16.125Z,2.80
2023-02-05T23:04:58.865Z,2.71
2023-02-05T23:08:42.455Z,2.63
2023-02-05T23:12:25.104Z,2.58
2023-02-05T23:16:09.025Z,2.52
2023-02-05T23:19:53.549Z,2.53
2023-02-05T23:23:36.292Z,2.49
2023-02-05T23:27:18.981Z,2.45
2023-02-05T23:31:01.707Z,2.35
2023-02-05T23:34:44.711Z,2.28
2023-02-05T23:38:28.797Z,2.16
2023-02-05T23:42:11.877Z,2.13
2023-02-05T23:45:55.483Z,2.08
2023-02-05T23:49:38.195Z,2.05
2023-02-05T23:53:22.010Z,2.01
2023-02-05T23:57:06.077Z,1.98
